Time;durP1;ratioP1;P1;durP2;ratioP2;P2;SDS_P1;SDS_P2;PMS_P1;PMS_P2;Temp;Humidity;BMP_temperature;BMP_pressure;BME280_temperature;BME280_humidity;BME280_pressure;Samples;Min_cycle;Max_cycle;Signal;HPM_P1;HPM_P2
2023/04/26 00:02:12;;;;;;;7.07;5.80;;;;;;;;;;10482911;28;21286;-91
2023/04/26 00:07:16;;;;;;;6.37;5.67;;;;;;;;;;10485026;28;20555;-94
2023/04/26 00:12:17;;;;;;;6.40;5.70;;;;;;;;;;10482655;28;20411;-93
2023/04/26 00:17:19;;;;;;;6.97;5.97;;;;;;;;;;10477669;28;20414;-93
2023/04/26 00:22:23;;;;;;;8.40;6.10;;;;;;;;;;10482393;28;20502;-93
2023/04/26 00:27:24;;;;;;;7.87;6.57;;;;;;;;;;10481895;28;20406;-94
2023/04/26 00:32:26;;;;;;;7.20;6.10;;;;;;;;;;10478300;28;20394;-93
2023/04/26 00:37:30;;;;;;;8.53;6.17;;;;;;;;;;10481331;28;20442;-93
2023/04/26 00:42:31;;;;;;;8.13;6.28;;;;;;;;;;10477372;28;20460;-93
2023/04/26 00:47:34;;;;;;;6.97;5.93;;;;;;;;;;10477223;28;20448;-91
2023/04/26 00:52:37;;;;;;;9.25;5.88;;;;;;;;;;10488190;28;20428;-94
2023/04/26 00:57:39;;;;;;;6.43;5.70;;;;;;;;;;10481287;28;20406;-93
2023/04/26 01:02:41;;;;;;;5.82;5.22;;;;;;;;;;10479638;28;20418;-93
2023/04/26 01:07:45;;;;;;;7.37;5.37;;;;;;;;;;10468951;28;20906;-93
2023/04/26 01:12:47;;;;;;;6.97;5.22;;;;;;;;;;10485400;28;20448;-93
2023/04/26 01:17:49;;;;;;;6.35;5.15;;;;;;;;;;10475881;28;20406;-93
2023/04/26 01:22:52;;;;;;;6.50;4.73;;;;;;;;;;10483418;28;20465;-94
2023/04/26 01:27:54;;;;;;;6.87;4.90;;;;;;;;;;10475937;28;20392;-94
2023/04/26 01:32:56;;;;;;;5.38;4.85;;;;;;;;;;10480372;28;20947;-93
2023/04/26 01:37:59;;;;;;;6.10;4.70;;;;;;;;;;10481930;28;20406;-93
2023/04/26 01:43:02;;;;;;;6.17;4.93;;;;;;;;;;10476354;28;20422;-94
2023/04/26 01:48:04;;;;;;;6.35;4.55;;;;;;;;;;10478406;28;20428;-94
2023/04/26 01:53:07;;;;;;;6.20;4.63;;;;;;;;;;10481509;28;20412;-93
2023/04/26 01:58:09;;;;;;;6.37;5.00;;;;;;;;;;10472756;28;20412;-93
2023/04/26 02:03:10;;;;;;;5.80;5.20;;;;;;;;;;10474343;28;20426;-93
2023/04/26 02:08:14;;;;;;;5.93;5.30;;;;;;;;;;10480440;28;20498;-93
2023/04/26 02:13:15;;;;;;;6.10;5.17;;;;;;;;;;10476102;28;20412;-94
2023/04/26 02:18:20;;;;;;;6.65;5.30;;;;;;;;;;10474102;28;20912;-92
2023/04/26 02:23:24;;;;;;;5.90;5.30;;;;;;;;;;10477917;28;20425;-94
2023/04/26 02:28:26;;;;;;;11.60;5.28;;;;;;;;;;10476163;28;20411;-92
2023/04/26 02:33:27;;;;;;;6.97;5.45;;;;;;;;;;10475496;28;20402;-94
2023/04/26 02:38:30;;;;;;;6.93;5.17;;;;;;;;;;10476711;28;20782;-93
2023/04/26 02:43:32;;;;;;;6.18;5.10;;;;;;;;;;10477099;28;20513;-93
2023/04/26 02:48:34;;;;;;;6.90;5.55;;;;;;;;;;10478053;28;20410;-92
2023/04/26 02:53:37;;;;;;;6.87;5.40;;;;;;;;;;10479340;28;20567;-93
2023/04/26 02:58:39;;;;;;;6.10;5.10;;;;;;;;;;10475182;28;20459;-93
2023/04/26 03:03:41;;;;;;;5.72;5.00;;;;;;;;;;10476292;28;20423;-94
2023/04/26 03:08:44;;;;;;;9.20;4.90;;;;;;;;;;10475885;28;20493;-93
2023/04/26 03:13:46;;;;;;;6.60;5.10;;;;;;;;;;10473959;28;20416;-93
2023/04/26 03:18:47;;;;;;;5.90;4.60;;;;;;;;;;10471422;28;20406;-94
2023/04/26 03:23:51;;;;;;;5.18;4.35;;;;;;;;;;10477477;28;20500;-93
2023/04/26 03:28:52;;;;;;;5.35;4.25;;;;;;;;;;10484170;28;20402;-93
2023/04/26 03:33:54;;;;;;;5.03;4.00;;;;;;;;;;10480873;28;20492;-93
2023/04/26 03:38:57;;;;;;;4.57;3.95;;;;;;;;;;10484551;28;20402;-93
2023/04/26 03:43:59;;;;;;;8.80;3.60;;;;;;;;;;10460784;28;20819;-92
2023/04/26 03:49:01;;;;;;;5.10;3.80;;;;;;;;;;10466562;28;20418;-93
2023/04/26 03:54:05;;;;;;;6.38;3.80;;;;;;;;;;10476508;28;20427;-93
2023/04/26 03:59:08;;;;;;;4.10;3.40;;;;;;;;;;10482602;28;21044;-93
2023/04/26 04:04:10;;;;;;;4.93;3.45;;;;;;;;;;10479424;28;20519;-93
2023/04/26 04:09:13;;;;;;;4.75;3.20;;;;;;;;;;10482804;28;20404;-93
2023/04/26 04:14:15;;;;;;;3.70;3.20;;;;;;;;;;10482295;28;20410;-93
2023/04/26 04:19:16;;;;;;;4.67;3.40;;;;;;;;;;10459532;28;20400;-92
2023/04/26 04:24:20;;;;;;;6.90;3.50;;;;;;;;;;10489447;28;20430;-93
2023/04/26 04:29:22;;;;;;;3.58;2.80;;;;;;;;;;10478374;28;20411;-93
2023/04/26 04:34:23;;;;;;;3.53;2.60;;;;;;;;;;10473487;28;20407;-92
2023/04/26 04:39:27;;;;;;;3.13;2.80;;;;;;;;;;10482352;28;20461;-94
2023/04/26 04:44:29;;;;;;;4.03;2.83;;;;;;;;;;10478064;28;20458;-94
2023/04/26 04:49:31;;;;;;;4.22;3.08;;;;;;;;;;10477825;28;20463;-93
2023/04/26 04:54:34;;;;;;;6.85;3.30;;;;;;;;;;10481126;28;20402;-93
2023/04/26 04:59:36;;;;;;;4.95;3.35;;;;;;;;;;10482821;28;20893;-93
2023/04/26 05:04:38;;;;;;;5.28;3.38;;;;;;;;;;10478587;28;20508;-93
2023/04/26 05:09:41;;;;;;;4.65;3.35;;;;;;;;;;10485736;28;20408;-93
2023/04/26 05:14:43;;;;;;;5.22;3.13;;;;;;;;;;10485320;28;20426;-93
2023/04/26 05:19:45;;;;;;;4.63;3.40;;;;;;;;;;10486577;28;20411;-93
2023/04/26 05:24:48;;;;;;;4.53;3.38;;;;;;;;;;10477335;28;20425;-93
2023/04/26 05:29:50;;;;;;;5.15;3.15;;;;;;;;;;10479560;28;20439;-93
2023/04/26 05:34:52;;;;;;;3.60;3.07;;;;;;;;;;10486192;28;20401;-93
2023/04/26 05:39:55;;;;;;;4.15;2.95;;;;;;;;;;10484488;28;20420;-92
2023/04/26 05:44:58;;;;;;;5.43;3.75;;;;;;;;;;10494704;28;20576;-91
2023/04/26 05:50:00;;;;;;;5.17;3.70;;;;;;;;;;10484369;28;20406;-91
2023/04/26 05:55:04;;;;;;;4.65;3.00;;;;;;;;;;10470258;28;20771;-92
2023/04/26 06:00:08;;;;;;;4.90;2.50;;;;;;;;;;10493051;28;20421;-92
2023/04/26 06:05:10;;;;;;;4.20;2.03;;;;;;;;;;10490866;28;20414;-91
2023/04/26 06:10:13;;;;;;;3.63;2.23;;;;;;;;;;10496064;28;20455;-92
2023/04/26 06:15:15;;;;;;;2.88;2.05;;;;;;;;;;10484758;28;20402;-92
2023/04/26 06:20:17;;;;;;;3.65;2.20;;;;;;;;;;10493131;28;20416;-92
2023/04/26 06:25:20;;;;;;;3.70;2.20;;;;;;;;;;10485393;28;20430;-92
2023/04/26 06:30:22;;;;;;;3.00;1.90;;;;;;;;;;10496171;28;20414;-92
2023/04/26 06:35:24;;;;;;;2.55;1.95;;;;;;;;;;10495533;28;20477;-92
2023/04/26 06:40:27;;;;;;;4.30;1.90;;;;;;;;;;10495826;28;20402;-92
2023/04/26 06:45:29;;;;;;;3.10;2.17;;;;;;;;;;10491652;28;20530;-91
2023/04/26 06:50:31;;;;;;;3.40;2.30;;;;;;;;;;10487228;28;20523;-92
2023/04/26 06:55:35;;;;;;;2.63;2.15;;;;;;;;;;10491443;28;20844;-91
2023/04/26 07:00:36;;;;;;;2.97;1.77;;;;;;;;;;10481582;28;20394;-90
2023/04/26 07:05:39;;;;;;;3.38;1.65;;;;;;;;;;10484143;28;20513;-92
2023/04/26 07:10:42;;;;;;;2.80;1.70;;;;;;;;;;10494872;28;20410;-92
2023/04/26 07:15:44;;;;;;;2.53;1.52;;;;;;;;;;10506004;28;20440;-92
2023/04/26 07:20:46;;;;;;;3.83;1.60;;;;;;;;;;10521293;28;20414;-93
2023/04/26 07:25:49;;;;;;;2.58;1.90;;;;;;;;;;10493885;28;20434;-93
2023/04/26 07:30:51;;;;;;;2.08;1.77;;;;;;;;;;10494655;28;20835;-92
2023/04/26 07:35:58;;;;;;;2.63;1.70;;;;;;;;;;10479629;28;20434;-92
2023/04/26 07:41:01;;;;;;;2.40;1.90;;;;;;;;;;10492003;28;20409;-94
2023/04/26 07:46:03;;;;;;;8.95;1.90;;;;;;;;;;10517608;28;20935;-89
2023/04/26 07:51:09;;;;;;;2.15;1.88;;;;;;;;;;10489451;28;20502;-89
2023/04/26 07:56:12;;;;;;;2.60;1.67;;;;;;;;;;10497810;28;20406;-89
2023/04/26 08:01:14;;;;;;;3.25;1.65;;;;;;;;;;10487095;28;20909;-87
2023/04/26 08:06:16;;;;;;;3.03;1.80;;;;;;;;;;10493733;28;20903;-90
2023/04/26 08:11:20;;;;;;;4.05;2.83;;;;;;;;;;10498146;28;20781;-94
2023/04/26 08:16:22;;;;;;;3.67;2.87;;;;;;;;;;10491535;28;20502;-88
2023/04/26 08:21:24;;;;;;;4.68;3.20;;;;;;;;;;10494876;28;20412;-82
2023/04/26 08:26:27;;;;;;;4.45;3.55;;;;;;;;;;10487561;28;20432;-80
2023/04/26 08:31:29;;;;;;;5.15;3.97;;;;;;;;;;10482215;28;20405;-80
2023/04/26 08:36:31;;;;;;;4.07;3.30;;;;;;;;;;10485880;28;20454;-85
2023/04/26 08:41:37;;;;;;;3.90;2.47;;;;;;;;;;10477073;28;20400;-84
2023/04/26 08:46:44;;;;;;;4.25;2.88;;;;;;;;;;10470201;28;20418;-83
2023/04/26 08:51:47;;;;;;;5.03;3.60;;;;;;;;;;10481788;28;20438;-82
2023/04/26 08:56:53;;;;;;;4.57;3.47;;;;;;;;;;10468851;28;20481;-84
2023/04/26 09:01:55;;;;;;;4.30;3.30;;;;;;;;;;10466794;28;20449;-84
2023/04/26 09:07:01;;;;;;;4.07;3.53;;;;;;;;;;10455018;28;21076;-84
2023/04/26 09:12:05;;;;;;;3.55;2.42;;;;;;;;;;10457615;28;20417;-83
2023/04/26 09:17:24;;;;;;;2.88;2.40;;;;;;;;;;10446809;28;21287;-83
2023/04/26 09:22:33;;;;;;;3.83;2.93;;;;;;;;;;10463846;28;20490;-84
2023/04/26 09:27:38;;;;;;;2.07;1.87;;;;;;;;;;10477780;28;20425;-83
2023/04/26 09:32:51;;;;;;;17.48;8.55;;;;;;;;;;10475501;28;20402;-84
2023/04/26 09:37:55;;;;;;;14.43;8.47;;;;;;;;;;10476631;28;20892;-83
2023/04/26 09:43:03;;;;;;;1.63;1.30;;;;;;;;;;10476850;28;20411;-83
2023/04/26 09:48:16;;;;;;;2.20;1.70;;;;;;;;;;10471761;28;20438;-83
2023/04/26 09:53:29;;;;;;;2.70;1.98;;;;;;;;;;10479055;28;20410;-82
2023/04/26 09:58:33;;;;;;;3.95;1.67;;;;;;;;;;10479318;28;20890;-82
2023/04/26 10:03:35;;;;;;;2.77;1.80;;;;;;;;;;10478432;28;20790;-84
2023/04/26 10:08:36;;;;;;;2.25;1.90;;;;;;;;;;10480618;28;21173;-82
2023/04/26 10:13:40;;;;;;;3.55;2.58;;;;;;;;;;10450455;28;20406;-82
2023/04/26 10:18:42;;;;;;;2.20;1.60;;;;;;;;;;10447252;28;20416;-83
2023/04/26 10:23:44;;;;;;;3.03;1.70;;;;;;;;;;10469634;28;20468;-83
2023/04/26 10:28:56;;;;;;;2.20;2.00;;;;;;;;;;10462323;28;20400;-83
2023/04/26 10:34:20;;;;;;;2.53;2.10;;;;;;;;;;10462683;28;20420;-84
2023/04/26 10:39:23;;;;;;;2.30;2.00;;;;;;;;;;10459665;28;20409;-83
2023/04/26 10:44:44;;;;;;;3.40;2.40;;;;;;;;;;10462326;28;20457;-84
2023/04/26 10:49:47;;;;;;;2.97;2.45;;;;;;;;;;10457960;28;20392;-83
2023/04/26 10:54:58;;;;;;;3.73;2.80;;;;;;;;;;10454365;28;21157;-83
2023/04/26 11:00:27;;;;;;;4.13;2.50;;;;;;;;;;10445713;28;20506;-84
2023/04/26 11:05:54;;;;;;;4.00;3.28;;;;;;;;;;10453241;28;20840;-84
2023/04/26 11:11:07;;;;;;;4.68;3.05;;;;;;;;;;10452160;28;21126;-83
2023/04/26 11:16:12;;;;;;;3.45;3.08;;;;;;;;;;10455856;28;20407;-83
2023/04/26 11:21:16;;;;;;;4.47;3.90;;;;;;;;;;10460301;28;20510;-83
2023/04/26 11:26:18;;;;;;;4.37;2.70;;;;;;;;;;10460370;28;20661;-83
2023/04/26 11:31:21;;;;;;;2.93;2.73;;;;;;;;;;10480124;28;20858;-85
2023/04/26 11:36:23;;;;;;;6.43;2.75;;;;;;;;;;10472441;28;20509;-83
2023/04/26 11:41:25;;;;;;;2.25;1.90;;;;;;;;;;10479073;28;20509;-84
2023/04/26 11:46:29;;;;;;;3.05;1.60;;;;;;;;;;10481408;28;20437;-83
2023/04/26 11:51:31;;;;;;;3.47;1.60;;;;;;;;;;10487825;28;20418;-84
2023/04/26 11:56:33;;;;;;;3.50;1.60;;;;;;;;;;10485151;28;20988;-84
2023/04/26 12:01:36;;;;;;;1.77;1.63;;;;;;;;;;10479245;28;20406;-84
2023/04/26 12:06:43;;;;;;;2.10;1.27;;;;;;;;;;10482776;28;20590;-83
2023/04/26 12:11:49;;;;;;;1.60;1.30;;;;;;;;;;10482583;28;20418;-85
2023/04/26 12:16:53;;;;;;;2.15;1.30;;;;;;;;;;10480559;28;20417;-84
2023/04/26 12:21:55;;;;;;;1.83;1.73;;;;;;;;;;10481143;28;20801;-84
2023/04/26 12:26:57;;;;;;;1.33;1.20;;;;;;;;;;10486815;28;20425;-85
2023/04/26 12:32:00;;;;;;;2.00;1.23;;;;;;;;;;10485774;28;20406;-83
2023/04/26 12:37:04;;;;;;;1.75;1.58;;;;;;;;;;10479501;28;20430;-84
2023/04/26 12:42:06;;;;;;;1.50;1.10;;;;;;;;;;10476395;28;20398;-83
2023/04/26 12:47:21;;;;;;;1.95;1.20;;;;;;;;;;10475666;28;20431;-78
2023/04/26 12:52:23;;;;;;;1.23;1.13;;;;;;;;;;10446089;28;20441;-83
2023/04/26 12:57:25;;;;;;;2.07;1.30;;;;;;;;;;10467130;28;20498;-84
2023/04/26 13:02:28;;;;;;;1.42;1.10;;;;;;;;;;10468600;28;20406;-84
2023/04/26 13:07:30;;;;;;;2.58;1.17;;;;;;;;;;10480398;28;20424;-84
2023/04/26 13:12:32;;;;;;;1.90;1.13;;;;;;;;;;10482901;28;20772;-85
2023/04/26 13:17:36;;;;;;;1.50;1.10;;;;;;;;;;10477026;28;20868;-84
2023/04/26 13:22:41;;;;;;;2.53;1.20;;;;;;;;;;10462824;28;20981;-84
2023/04/26 13:27:42;;;;;;;3.03;1.20;;;;;;;;;;10473604;28;20448;-84
2023/04/26 13:32:46;;;;;;;1.60;1.50;;;;;;;;;;10480554;28;20774;-81
2023/04/26 13:37:48;;;;;;;1.87;1.40;;;;;;;;;;10474347;28;20406;-82
2023/04/26 13:42:50;;;;;;;1.83;1.30;;;;;;;;;;10474346;28;20398;-83
2023/04/26 13:47:53;;;;;;;1.70;1.15;;;;;;;;;;10487654;22;20414;-84
2023/04/26 13:52:55;;;;;;;1.30;1.05;;;;;;;;;;10482316;28;20405;-84
2023/04/26 13:57:57;;;;;;;1.65;1.10;;;;;;;;;;10484492;28;20877;-84
2023/04/26 14:03:00;;;;;;;1.77;0.90;;;;;;;;;;10480130;28;20873;-84
2023/04/26 14:08:02;;;;;;;1.83;0.93;;;;;;;;;;10483819;28;20426;-83
2023/04/26 14:13:04;;;;;;;1.35;1.00;;;;;;;;;;10485926;28;20488;-85
2023/04/26 14:18:10;;;;;;;1.88;1.10;;;;;;;;;;10467669;28;23471;-85
2023/04/26 14:23:11;;;;;;;1.23;1.05;;;;;;;;;;10484161;28;20790;-81
2023/04/26 14:28:15;;;;;;;1.65;1.10;;;;;;;;;;10485610;28;20513;-81
2023/04/26 14:33:18;;;;;;;1.30;1.02;;;;;;;;;;10483233;28;20459;-81
2023/04/26 14:38:20;;;;;;;2.50;1.50;;;;;;;;;;10480083;28;20414;-83
2023/04/26 14:43:21;;;;;;;3.17;1.13;;;;;;;;;;10482577;28;20402;-83
2023/04/26 14:48:26;;;;;;;1.05;0.90;;;;;;;;;;10465348;28;20433;-83
2023/04/26 14:53:28;;;;;;;1.10;1.00;;;;;;;;;;10469503;28;20413;-83
2023/04/26 14:58:29;;;;;;;2.88;1.20;;;;;;;;;;10472563;28;20407;-83
2023/04/26 15:03:32;;;;;;;1.85;1.38;;;;;;;;;;10461429;28;20432;-82
2023/04/26 15:08:34;;;;;;;3.10;1.00;;;;;;;;;;10460376;28;21065;-83
2023/04/26 15:13:36;;;;;;;1.20;1.00;;;;;;;;;;10460705;28;20435;-82
2023/04/26 15:18:40;;;;;;;1.50;0.80;;;;;;;;;;10460732;28;20448;-83
2023/04/26 15:23:42;;;;;;;1.05;0.90;;;;;;;;;;10470105;28;20426;-83
2023/04/26 15:28:44;;;;;;;3.00;1.00;;;;;;;;;;10464555;28;20428;-83
2023/04/26 15:33:47;;;;;;;1.67;1.10;;;;;;;;;;10465901;28;20422;-83
2023/04/26 15:38:49;;;;;;;1.63;0.80;;;;;;;;;;10467204;28;20414;-83
2023/04/26 15:43:54;;;;;;;1.20;0.77;;;;;;;;;;10463658;28;20430;-82
2023/04/26 15:48:57;;;;;;;1.30;0.90;;;;;;;;;;10467856;28;20450;-83
2023/04/26 15:53:59;;;;;;;1.25;0.80;;;;;;;;;;10469609;28;20436;-83
2023/04/26 15:59:00;;;;;;;3.80;0.98;;;;;;;;;;10461765;28;20443;-83
2023/04/26 16:04:04;;;;;;;1.10;0.90;;;;;;;;;;10476965;28;20416;-84
2023/04/26 16:09:07;;;;;;;1.15;0.80;;;;;;;;;;10469733;28;20422;-83
2023/04/26 16:14:09;;;;;;;1.37;0.97;;;;;;;;;;10469492;28;20415;-83
2023/04/26 16:19:13;;;;;;;1.50;0.82;;;;;;;;;;10468031;28;20414;-83
2023/04/26 16:24:15;;;;;;;1.73;0.70;;;;;;;;;;10473586;28;20417;-83
2023/04/26 16:29:17;;;;;;;1.25;0.90;;;;;;;;;;10462999;28;20424;-83
2023/04/26 16:34:20;;;;;;;1.48;0.82;;;;;;;;;;10475235;28;20505;-83
2023/04/26 16:39:22;;;;;;;1.65;0.98;;;;;;;;;;10471865;28;20551;-84
2023/04/26 16:44:24;;;;;;;2.20;0.90;;;;;;;;;;10462445;28;20806;-84
2023/04/26 16:49:27;;;;;;;5.83;1.20;;;;;;;;;;10466722;28;20431;-83
2023/04/26 16:54:29;;;;;;;1.40;1.02;;;;;;;;;;10466477;28;20947;-80
2023/04/26 16:59:31;;;;;;;1.33;0.82;;;;;;;;;;10465206;28;20415;-80
2023/04/26 17:04:34;;;;;;;1.38;1.10;;;;;;;;;;10461480;28;20739;-80
2023/04/26 17:09:36;;;;;;;1.45;1.00;;;;;;;;;;10462929;28;20456;-80
2023/04/26 17:14:38;;;;;;;1.85;0.98;;;;;;;;;;10463382;28;20489;-84
2023/04/26 17:19:41;;;;;;;3.33;1.10;;;;;;;;;;10463864;28;20414;-83
2023/04/26 17:24:43;;;;;;;1.88;1.00;;;;;;;;;;10441233;28;20772;-83
2023/04/26 17:29:45;;;;;;;1.60;1.20;;;;;;;;;;10441507;28;20424;-84
2023/04/26 17:34:48;;;;;;;1.77;1.23;;;;;;;;;;10461354;28;20449;-83
2023/04/26 17:39:50;;;;;;;2.47;1.13;;;;;;;;;;10468654;28;20980;-83
2023/04/26 17:44:52;;;;;;;1.60;1.20;;;;;;;;;;10464708;28;20421;-83
2023/04/26 17:49:55;;;;;;;1.20;1.05;;;;;;;;;;10468300;28;20422;-83
2023/04/26 17:54:56;;;;;;;1.63;1.00;;;;;;;;;;10439210;28;20422;-83
2023/04/26 17:59:58;;;;;;;1.48;1.17;;;;;;;;;;10458519;28;20418;-83
2023/04/26 18:05:02;;;;;;;1.20;1.10;;;;;;;;;;10466559;28;20433;-84
2023/04/26 18:10:05;;;;;;;2.05;1.00;;;;;;;;;;10459502;28;20423;-83
2023/04/26 18:15:08;;;;;;;2.73;1.10;;;;;;;;;;10464371;28;20420;-83
2023/04/26 18:20:12;;;;;;;1.30;1.00;;;;;;;;;;10461944;28;20418;-82
2023/04/26 18:25:14;;;;;;;6.32;3.40;;;;;;;;;;10443694;28;20422;-82
2023/04/26 18:30:17;;;;;;;1.40;1.30;;;;;;;;;;10460094;28;20431;-82
2023/04/26 18:35:20;;;;;;;2.33;1.55;;;;;;;;;;10464271;28;20495;-83
2023/04/26 18:40:22;;;;;;;2.03;1.33;;;;;;;;;;10458055;28;20412;-83
2023/04/26 18:45:24;;;;;;;2.05;1.40;;;;;;;;;;10459309;28;20814;-82
2023/04/26 18:50:27;;;;;;;2.00;1.30;;;;;;;;;;10465169;28;20484;-84
2023/04/26 18:55:29;;;;;;;2.20;1.40;;;;;;;;;;10464677;28;20498;-87
2023/04/26 19:00:32;;;;;;;2.30;2.10;;;;;;;;;;10484508;28;20874;-82
2023/04/26 19:05:36;;;;;;;2.80;1.80;;;;;;;;;;10488005;28;20401;-82
2023/04/26 19:10:38;;;;;;;3.13;1.88;;;;;;;;;;10490522;28;20917;-83
2023/04/26 19:15:39;;;;;;;2.70;2.00;;;;;;;;;;10483799;28;20810;-84
2023/04/26 19:20:43;;;;;;;2.80;1.70;;;;;;;;;;10485960;28;20445;-85
2023/04/26 19:25:45;;;;;;;2.30;1.73;;;;;;;;;;10480228;28;20444;-84
2023/04/26 19:30:47;;;;;;;3.55;2.70;;;;;;;;;;10479516;28;20424;-84
2023/04/26 19:35:50;;;;;;;3.95;2.97;;;;;;;;;;10486247;28;20773;-84
2023/04/26 19:40:52;;;;;;;3.33;2.90;;;;;;;;;;10480966;28;20422;-84
2023/04/26 19:45:53;;;;;;;4.05;3.17;;;;;;;;;;10484615;28;20787;-84
2023/04/26 19:50:57;;;;;;;3.72;2.90;;;;;;;;;;10479996;28;20507;-84
2023/04/26 19:55:58;;;;;;;3.57;2.77;;;;;;;;;;10476273;28;20402;-86
2023/04/26 20:01:00;;;;;;;3.70;3.30;;;;;;;;;;10468064;28;20410;-84
2023/04/26 20:06:04;;;;;;;4.60;3.15;;;;;;;;;;10462619;28;20420;-84
2023/04/26 20:11:06;;;;;;;3.80;3.05;;;;;;;;;;10470487;28;20417;-82
2023/04/26 20:16:07;;;;;;;4.20;3.00;;;;;;;;;;10465383;28;20961;-85
2023/04/26 20:21:11;;;;;;;4.63;2.83;;;;;;;;;;10467980;28;20500;-84
2023/04/26 20:26:12;;;;;;;4.03;2.70;;;;;;;;;;10466423;28;20463;-86
2023/04/26 20:31:14;;;;;;;4.43;3.00;;;;;;;;;;10469390;28;20404;-85
2023/04/26 20:36:18;;;;;;;4.15;2.97;;;;;;;;;;10473349;28;20497;-85
2023/04/26 20:41:20;;;;;;;3.30;3.00;;;;;;;;;;10476485;28;20413;-85
2023/04/26 20:46:22;;;;;;;5.22;3.10;;;;;;;;;;10478607;28;21334;-84
2023/04/26 20:51:26;;;;;;;4.75;3.13;;;;;;;;;;10475515;28;20918;-84
2023/04/26 20:56:27;;;;;;;3.33;2.60;;;;;;;;;;10482389;28;20418;-84
2023/04/26 21:01:29;;;;;;;3.87;2.53;;;;;;;;;;10482592;28;20416;-84
2023/04/26 21:06:32;;;;;;;2.90;2.38;;;;;;;;;;10471610;28;20427;-85
2023/04/26 21:11:34;;;;;;;3.43;2.60;;;;;;;;;;10482571;28;20420;-85
2023/04/26 21:16:36;;;;;;;5.03;2.58;;;;;;;;;;10479812;28;20475;-85
2023/04/26 21:21:40;;;;;;;4.20;2.70;;;;;;;;;;10481448;28;20414;-84
2023/04/26 21:26:41;;;;;;;4.30;2.50;;;;;;;;;;10481839;28;20501;-84
2023/04/26 21:31:43;;;;;;;3.33;2.90;;;;;;;;;;10484639;28;20519;-84
2023/04/26 21:36:47;;;;;;;4.13;3.50;;;;;;;;;;10480124;28;20505;-85
2023/04/26 21:41:48;;;;;;;5.03;3.40;;;;;;;;;;10480614;28;20413;-84
2023/04/26 21:46:50;;;;;;;5.50;3.25;;;;;;;;;;10479287;28;20451;-85
2023/04/26 21:51:53;;;;;;;4.50;3.60;;;;;;;;;;10477956;28;20413;-85
2023/04/26 21:56:55;;;;;;;4.45;3.30;;;;;;;;;;10462091;28;20422;-85
2023/04/26 22:01:57;;;;;;;4.77;3.60;;;;;;;;;;10460959;28;20404;-85
2023/04/26 22:07:00;;;;;;;3.85;3.30;;;;;;;;;;10459513;28;20925;-85
2023/04/26 22:12:02;;;;;;;4.93;3.47;;;;;;;;;;10458379;28;20813;-84
2023/04/26 22:17:04;;;;;;;5.77;3.57;;;;;;;;;;10459671;28;20545;-85
2023/04/26 22:22:07;;;;;;;7.00;3.80;;;;;;;;;;10464433;28;20449;-85
2023/04/26 22:27:09;;;;;;;4.28;3.45;;;;;;;;;;10458737;28;21098;-85
2023/04/26 22:32:11;;;;;;;4.32;3.60;;;;;;;;;;10470627;28;20410;-85
2023/04/26 22:37:14;;;;;;;4.20;3.80;;;;;;;;;;10462415;28;20442;-85
2023/04/26 22:42:16;;;;;;;4.95;3.90;;;;;;;;;;10464020;28;21392;-85
2023/04/26 22:47:18;;;;;;;6.00;3.80;;;;;;;;;;10470096;28;21053;-82
2023/04/26 22:52:21;;;;;;;4.50;3.90;;;;;;;;;;10466132;28;20402;-84
2023/04/26 22:57:22;;;;;;;4.97;4.10;;;;;;;;;;10471206;28;20398;-85
2023/04/26 23:02:25;;;;;;;5.20;4.15;;;;;;;;;;10464053;28;20406;-84
2023/04/26 23:07:28;;;;;;;6.20;4.60;;;;;;;;;;10461959;28;20485;-84
2023/04/26 23:12:30;;;;;;;6.03;4.37;;;;;;;;;;10469334;28;20861;-84
2023/04/26 23:17:32;;;;;;;7.40;4.60;;;;;;;;;;10467303;28;20494;-84
2023/04/26 23:22:35;;;;;;;6.10;4.45;;;;;;;;;;10469862;28;20463;-83
2023/04/26 23:27:39;;;;;;;5.78;4.43;;;;;;;;;;10467334;28;20502;-84
2023/04/26 23:32:40;;;;;;;6.73;4.10;;;;;;;;;;10469943;28;20418;-81
2023/04/26 23:37:44;;;;;;;5.50;4.38;;;;;;;;;;10467078;28;20502;-85
2023/04/26 23:42:45;;;;;;;5.73;4.53;;;;;;;;;;10452177;28;20411;-84
2023/04/26 23:47:47;;;;;;;6.07;4.55;;;;;;;;;;10455571;28;20454;-84
2023/04/26 23:52:50;;;;;;;5.67;4.70;;;;;;;;;;10468832;28;20550;-85
2023/04/26 23:57:52;;;;;;;6.90;4.80;;;;;;;;;;10473698;28;20403;-84
